Mt Bomar Mars — 9HCM9 — position and weather

sailwx.info

Track history (hours):
 
Tides and Currents Weather Stations Pressure Air Temp Water Temp Dewpoint Dewpoint Depression Visibility Wind Speed Wind Dir Waves Ship Positions

Mt Bomar Mars

Last reported at 2016-Jul-24 09:22 UTC. Time now 2016-Jul-29 14:07 UTC.
Position N 35°58' W 005°37'.

Length 107 m; draft 6.9 m.

Type: Ship. MMSI: 256784000.

Date/timePositionNaut miles runAvg speedWind from/ knotsBaromVisibWave heightAir tempDewpointWater temp
2016-Jul-24 09:22N 35°58' W 005°37'8 9.6
2016-Jul-24 08:33N 36°00' W 005°27'1111.0
2016-Jul-24 07:33N 36°03' W 005°14'22011.0
2016-Jul-23 11:30N 37°18' W 000°56'1111.8
2016-Jul-23 10:33N 37°26' W 000°46'1211.5
2016-Jul-23 09:33N 37°34' W 000°35'1111.3
2016-Jul-23 08:33N 37°43' W 000°27'1211.5
2016-Jul-23 07:29N 37°53' W 000°18'1111.4
2016-Jul-23 06:32N 38°02' W 000°11'11411.3
2016-Jul-22 20:24N 39°45' E 000°52'911.0
2016-Jul-22 19:33N 39°54' E 000°56'1110.7
2016-Jul-22 18:29N 40°05' E 000°58'1210.7
2016-Jul-22 17:22N 40°17' E 001°01'911.0
2016-Jul-22 16:32N 40°26' E 001°04'1210.9
2016-Jul-22 15:27N 40°38' E 001°06'1310.8
2016-Jul-22 14:13N 40°51' E 001°09'15 0.6
2016-Jul-21 11:09N 41°06' E 001°13'2 2.7
2016-Jul-21 10:33N 41°04' E 001°14'2 1.5
2016-Jul-21 09:28N 41°06' E 001°15'0 0.0
2016-Jul-21 08:16N 41°06' E 001°15'0 0.0
2016-Jul-21 06:22N 41°06' E 001°15'0 0.0
2016-Jul-21 02:28N 41°06' E 001°15'0 0.0
2016-Jul-21 01:04N 41°06' E 001°15'0 0.0
2016-Jul-20 22:16N 41°06' E 001°15'0 0.0
2016-Jul-20 21:28N 41°06' E 001°15'5 0.9
2016-Jul-20 16:17N 41°02' E 001°19'1011.2
2016-Jul-20 15:23N 40°54' E 001°28'911.5
2016-Jul-20 14:33N 40°48' E 001°38'1110.5
2016-Jul-20 13:33N 40°41' E 001°48'1 0.6
2016-Jul-20 12:33N 40°40' E 001°48'8 8.1
2016-Jul-20 11:33N 40°40' E 001°58'9 8.7
2016-Jul-20 10:33N 40°42' E 002°09'9 8.7
2016-Jul-20 09:33N 40°51' E 002°12'9 8.6
2016-Jul-20 08:33N 40°59' E 002°14'10 9.6
2016-Jul-20 07:33N 41°09' E 002°12'1111.4
2016-Jul-20 06:33N 41°20' E 002°10'1 0.0
2016-Jul-19 03:28N 41°20' E 002°09'5 5.0
2016-Jul-19 02:29N 41°15' E 002°11'1011.0
2016-Jul-19 01:33N 41°06' E 002°06'1110.8
2016-Jul-19 00:33N 40°57' E 001°59'1110.9
2016-Jul-18 23:33N 40°47' E 001°52'1111.5
2016-Jul-18 22:34N 40°37' E 001°45'1111.2
2016-Jul-18 21:33N 40°27' E 001°38'1111.1
2016-Jul-18 20:33N 40°17' E 001°32'1111.0
2016-Jul-18 19:33N 40°07' E 001°25'1111.2
2016-Jul-18 18:33N 39°57' E 001°18'5711.3
2016-Jul-18 13:31N 39°06' E 000°45'1111.4
2016-Jul-18 12:31N 38°56' E 000°38'3411.2
2016-Jul-18 09:29N 38°27' E 000°15'1211.1
2016-Jul-18 08:26N 38°17' E 000°07'3410.9
2016-Jul-18 05:21N 37°49' W 000°17'910.9
2016-Jul-18 04:33N 37°42' W 000°23'1111.0
2016-Jul-18 03:32N 37°33' W 000°31'1210.8
2016-Jul-18 02:23N 37°25' W 000°43'1010.6
2016-Jul-18 01:27N 37°18' W 000°52'3110.5
2016-Jul-17 22:29N 36°57' W 001°21'1110.6
2016-Jul-17 21:26N 36°50' W 001°32'2110.7
2016-Jul-17 19:30N 36°38' W 001°52'16510.3
2016-Jul-17 03:33N 36°05' W 005°13'9 9.0
2016-Jul-17 02:33N 36°08' W 005°23'1 0.0
2016-Jul-16 04:33N 36°08' W 005°24'4 4.1
2016-Jul-16 03:33N 36°05' W 005°22'3 3.0
2016-Jul-16 02:33N 36°02' W 005°21'8 8.4
2016-Jul-16 01:33N 35°57' W 005°30'  
Track history (hours):
 
Tides and Currents Weather Stations Pressure Air Temp Water Temp Dewpoint Dewpoint Depression Visibility Wind Speed Wind Dir Waves Ship Positions

Mt Bomar Mars

Last reported at 2016-Jul-24 09:22 UTC. Time now 2016-Jul-29 14:07 UTC.
Position N 35°58' W 005°37'.

Length 107 m; draft 6.9 m.

Type: Ship. MMSI: 256784000.

Date/timePositionNaut miles runAvg speedWind from/ knotsBaromVisibWave heightAir tempDewpointWater temp
2016-Jul-24 09:22N 35°58' W 005°37'8 9.6
2016-Jul-24 08:33N 36°00' W 005°27'1111.0
2016-Jul-24 07:33N 36°03' W 005°14'22011.0
2016-Jul-23 11:30N 37°18' W 000°56'1111.8
2016-Jul-23 10:33N 37°26' W 000°46'1211.5
2016-Jul-23 09:33N 37°34' W 000°35'1111.3
2016-Jul-23 08:33N 37°43' W 000°27'1211.5
2016-Jul-23 07:29N 37°53' W 000°18'1111.4
2016-Jul-23 06:32N 38°02' W 000°11'11411.3
2016-Jul-22 20:24N 39°45' E 000°52'911.0
2016-Jul-22 19:33N 39°54' E 000°56'1110.7
2016-Jul-22 18:29N 40°05' E 000°58'1210.7
2016-Jul-22 17:22N 40°17' E 001°01'911.0
2016-Jul-22 16:32N 40°26' E 001°04'1210.9
2016-Jul-22 15:27N 40°38' E 001°06'1310.8
2016-Jul-22 14:13N 40°51' E 001°09'15 0.6
2016-Jul-21 11:09N 41°06' E 001°13'2 2.7
2016-Jul-21 10:33N 41°04' E 001°14'2 1.5
2016-Jul-21 09:28N 41°06' E 001°15'0 0.0
2016-Jul-21 08:16N 41°06' E 001°15'0 0.0
2016-Jul-21 06:22N 41°06' E 001°15'0 0.0
2016-Jul-21 02:28N 41°06' E 001°15'0 0.0
2016-Jul-21 01:04N 41°06' E 001°15'0 0.0
2016-Jul-20 22:16N 41°06' E 001°15'0 0.0
2016-Jul-20 21:28N 41°06' E 001°15'5 0.9
2016-Jul-20 16:17N 41°02' E 001°19'1011.2
2016-Jul-20 15:23N 40°54' E 001°28'911.5
2016-Jul-20 14:33N 40°48' E 001°38'1110.5
2016-Jul-20 13:33N 40°41' E 001°48'1 0.6
2016-Jul-20 12:33N 40°40' E 001°48'8 8.1
2016-Jul-20 11:33N 40°40' E 001°58'9 8.7
2016-Jul-20 10:33N 40°42' E 002°09'9 8.7
2016-Jul-20 09:33N 40°51' E 002°12'9 8.6
2016-Jul-20 08:33N 40°59' E 002°14'10 9.6
2016-Jul-20 07:33N 41°09' E 002°12'1111.4
2016-Jul-20 06:33N 41°20' E 002°10'1 0.0
2016-Jul-19 03:28N 41°20' E 002°09'5 5.0
2016-Jul-19 02:29N 41°15' E 002°11'1011.0
2016-Jul-19 01:33N 41°06' E 002°06'1110.8
2016-Jul-19 00:33N 40°57' E 001°59'1110.9
2016-Jul-18 23:33N 40°47' E 001°52'1111.5
2016-Jul-18 22:34N 40°37' E 001°45'1111.2
2016-Jul-18 21:33N 40°27' E 001°38'1111.1
2016-Jul-18 20:33N 40°17' E 001°32'1111.0
2016-Jul-18 19:33N 40°07' E 001°25'1111.2
2016-Jul-18 18:33N 39°57' E 001°18'5711.3
2016-Jul-18 13:31N 39°06' E 000°45'1111.4
2016-Jul-18 12:31N 38°56' E 000°38'3411.2
2016-Jul-18 09:29N 38°27' E 000°15'1211.1
2016-Jul-18 08:26N 38°17' E 000°07'3410.9
2016-Jul-18 05:21N 37°49' W 000°17'910.9
2016-Jul-18 04:33N 37°42' W 000°23'1111.0
2016-Jul-18 03:32N 37°33' W 000°31'1210.8
2016-Jul-18 02:23N 37°25' W 000°43'1010.6
2016-Jul-18 01:27N 37°18' W 000°52'3110.5
2016-Jul-17 22:29N 36°57' W 001°21'1110.6
2016-Jul-17 21:26N 36°50' W 001°32'2110.7
2016-Jul-17 19:30N 36°38' W 001°52'16510.3
2016-Jul-17 03:33N 36°05' W 005°13'9 9.0
2016-Jul-17 02:33N 36°08' W 005°23'1 0.0
2016-Jul-16 04:33N 36°08' W 005°24'4 4.1
2016-Jul-16 03:33N 36°05' W 005°22'3 3.0
2016-Jul-16 02:33N 36°02' W 005°21'8 8.4
2016-Jul-16 01:33N 35°57' W 005°30'  

Dump ship's entire track history